createdAt,value
2022-09-07T00:04:06.992Z,7.90
2022-09-07T00:09:10.442Z,7.13
2022-09-07T00:14:14.087Z,7.67
2022-09-07T00:19:17.739Z,7.43
2022-09-07T00:24:21.333Z,7.20
2022-09-07T00:29:25.248Z,7.23
2022-09-07T00:34:28.836Z,7.25
2022-09-07T00:39:32.421Z,7.53
2022-09-07T00:44:45.305Z,7.95
2022-09-07T00:49:55.389Z,7.68
2022-09-07T00:55:03.822Z,6.95
2022-09-07T01:00:08.923Z,7.20
2022-09-07T01:05:21.799Z,7.20
2022-09-07T01:10:28.909Z,7.00
2022-09-07T01:15:47.128Z,7.22
2022-09-07T01:21:05.336Z,6.30
2022-09-07T01:26:27.687Z,6.78
2022-09-07T01:31:48.599Z,7.00
2022-09-07T01:37:03.882Z,7.00
2022-09-07T01:42:16.609Z,7.30
2022-09-07T01:47:40.203Z,6.50
2022-09-07T01:52:57.152Z,6.88
2022-09-07T01:58:05.481Z,7.00
2022-09-07T02:03:15.956Z,7.50
2022-09-07T02:08:33.037Z,8.38
2022-09-07T02:13:41.322Z,8.50
2022-09-07T02:18:48.724Z,6.90
2022-09-07T02:23:59.064Z,7.40
2022-09-07T02:29:04.591Z,6.97
2022-09-07T02:34:08.721Z,7.60
2022-09-07T02:44:24.232Z,7.63
2022-09-07T02:49:58.302Z,7.68
2022-09-07T02:55:23.350Z,8.48
2022-09-07T03:00:30.352Z,8.48
2022-09-07T03:05:45.718Z,8.45
2022-09-07T03:11:00.749Z,8.23
2022-09-07T03:16:18.208Z,8.75
2022-09-07T03:21:28.373Z,7.80
2022-09-07T03:26:34.596Z,7.00
2022-09-07T03:31:38.476Z,7.15
2022-09-07T03:36:42.056Z,9.90
2022-09-07T03:41:45.604Z,8.30
2022-09-07T03:46:51.301Z,7.13
2022-09-07T03:51:55.018Z,7.70
2022-09-07T03:56:58.612Z,8.17
2022-09-07T04:02:02.978Z,8.47
2022-09-07T04:07:07.589Z,7.65
2022-09-07T04:17:14.604Z,7.90
2022-09-07T04:22:18.287Z,8.97
2022-09-07T04:27:22.840Z,8.60
2022-09-07T04:32:26.913Z,7.25
2022-09-07T04:37:30.573Z,7.10
2022-09-07T04:42:34.228Z,6.80
2022-09-07T04:47:37.890Z,6.97
2022-09-07T04:52:42.655Z,7.55
2022-09-07T04:57:46.272Z,7.35
2022-09-07T05:02:50.298Z,7.67
2022-09-07T05:07:54.971Z,7.05
2022-09-07T05:12:59.091Z,6.85
2022-09-07T05:18:02.553Z,6.55
2022-09-07T05:23:06.549Z,6.82
2022-09-07T05:28:10.454Z,6.60
2022-09-07T05:33:14.340Z,6.80
2022-09-07T05:38:18.338Z,6.28
2022-09-07T05:43:27.992Z,6.30
2022-09-07T05:48:32.112Z,6.00
2022-09-07T05:53:37.178Z,4.60
2022-09-07T05:58:41.283Z,4.90
2022-09-07T06:03:45.526Z,5.20
2022-09-07T06:13:54.217Z,5.07
2022-09-07T06:24:11.387Z,4.85
2022-09-07T06:29:14.930Z,10.70
2022-09-07T06:34:18.716Z,6.60
2022-09-07T06:39:22.395Z,3.90
2022-09-07T06:44:26.333Z,3.92
2022-09-07T06:49:30.491Z,3.67
2022-09-07T06:59:58.663Z,2.80
2022-09-07T07:05:02.147Z,3.10
2022-09-07T07:10:06.777Z,3.03
2022-09-07T07:15:10.423Z,2.90
2022-09-07T07:20:14.487Z,3.10
2022-09-07T07:25:17.959Z,4.10
2022-09-07T07:30:21.715Z,2.95
2022-09-07T07:35:25.306Z,3.72
2022-09-07T07:40:31.009Z,4.28
2022-09-07T07:51:11.904Z,3.13
2022-09-07T07:56:16.176Z,3.45
2022-09-07T08:01:20.012Z,3.10
2022-09-07T08:06:23.546Z,2.92
2022-09-07T08:11:27.178Z,3.28
2022-09-07T08:16:30.560Z,2.70
2022-09-07T08:21:33.906Z,3.00
2022-09-07T08:26:37.316Z,3.30
2022-09-07T08:31:40.970Z,4.43
2022-09-07T08:36:45.045Z,3.35
2022-09-07T08:41:57.449Z,3.97
2022-09-07T08:47:21.092Z,3.35
2022-09-07T08:52:35.062Z,3.40
2022-09-07T08:57:44.826Z,3.50
2022-09-07T09:03:28.664Z,2.88
2022-09-07T09:08:16.254Z,3.33
2022-09-07T09:13:30.103Z,4.63
2022-09-07T09:19:11.599Z,5.35
2022-09-07T09:24:20.450Z,6.15
2022-09-07T09:29:24.484Z,4.63
2022-09-07T09:39:38.694Z,4.20
2022-09-07T09:44:43.936Z,3.58
2022-09-07T09:49:47.465Z,3.35
2022-09-07T09:54:57.629Z,3.15
2022-09-07T10:00:11.325Z,2.80
2022-09-07T10:05:34.164Z,3.58
2022-09-07T10:24:59.690Z,2.03
2022-09-07T10:30:10.873Z,2.35
2022-09-07T10:35:14.729Z,2.10
2022-09-07T10:40:41.726Z,2.70
2022-09-07T10:50:43.873Z,2.80
2022-09-07T11:06:41.976Z,2.20
2022-09-07T11:12:01.941Z,2.00
2022-09-07T11:17:16.533Z,2.20
2022-09-07T11:22:28.313Z,2.00
2022-09-07T11:27:51.124Z,3.03
2022-09-07T11:33:12.156Z,2.97
2022-09-07T11:38:24.527Z,2.78
2022-09-07T11:43:46.044Z,2.53
2022-09-07T11:48:56.496Z,1.60
2022-09-07T11:54:23.853Z,2.22
2022-09-07T11:59:42.854Z,1.90
2022-09-07T12:05:10.336Z,2.40
2022-09-07T12:10:32.561Z,2.28
2022-09-07T12:15:55.682Z,1.90
2022-09-07T12:20:59.217Z,2.05
2022-09-07T12:26:33.902Z,1.70
2022-09-07T12:31:57.769Z,1.50
2022-09-07T12:37:12.623Z,1.70
2022-09-07T12:42:39.268Z,1.50
2022-09-07T12:47:43.114Z,1.70
2022-09-07T12:52:50.419Z,1.52
2022-09-07T12:58:07.098Z,1.50
2022-09-07T13:09:05.977Z,1.40
2022-09-07T13:14:16.050Z,1.65
2022-09-07T13:19:52.207Z,1.60
2022-09-07T13:24:56.173Z,1.60
2022-09-07T13:30:07.184Z,1.73
2022-09-07T13:35:17.938Z,1.98
2022-09-07T13:40:31.454Z,1.40
2022-09-07T13:46:00.567Z,1.52
2022-09-07T13:51:13.388Z,1.60
2022-09-07T13:56:29.123Z,1.70
2022-09-07T14:01:33.594Z,1.40
2022-09-07T14:06:39.343Z,1.52
2022-09-07T14:11:44.538Z,1.58
2022-09-07T14:17:01.913Z,1.55
2022-09-07T14:22:18.710Z,1.70
2022-09-07T14:27:40.724Z,1.75
2022-09-07T14:32:44.579Z,2.20
2022-09-07T14:37:47.873Z,1.60
2022-09-07T14:42:54.345Z,1.50
2022-09-07T14:58:33.559Z,1.80
2022-09-07T15:03:40.016Z,2.10
2022-09-07T15:08:48.899Z,1.40
2022-09-07T15:13:59.249Z,1.88
2022-09-07T15:19:18.158Z,1.95
2022-09-07T15:24:21.577Z,1.40
2022-09-07T15:29:26.094Z,1.30
2022-09-07T15:34:34.401Z,1.50
2022-09-07T15:39:45.530Z,1.67
2022-09-07T15:44:50.236Z,1.50
2022-09-07T15:49:54.184Z,1.50
2022-09-07T15:54:57.605Z,1.30
2022-09-07T16:00:01.353Z,1.65
2022-09-07T16:05:05.502Z,2.03
2022-09-07T16:10:19.261Z,1.55
2022-09-07T16:15:22.740Z,1.75
2022-09-07T16:20:26.871Z,2.15
2022-09-07T16:25:30.377Z,1.65
2022-09-07T16:30:34.401Z,2.00
2022-09-07T16:35:37.913Z,1.60
2022-09-07T16:40:43.625Z,1.63
2022-09-07T16:51:12.566Z,1.70
2022-09-07T16:56:20.340Z,1.75
2022-09-07T17:01:25.709Z,1.70
2022-09-07T17:06:30.753Z,2.08
2022-09-07T17:11:36.659Z,1.77
2022-09-07T17:16:41.915Z,1.90
2022-09-07T17:21:46.309Z,1.90
2022-09-07T17:26:49.656Z,1.65
2022-09-07T17:37:16.343Z,2.50
2022-09-07T17:42:19.847Z,1.60
2022-09-07T17:47:22.794Z,2.00
2022-09-07T17:52:26.638Z,1.73
2022-09-07T17:57:29.684Z,3.10
2022-09-07T18:02:42.385Z,2.03
2022-09-07T18:07:45.406Z,1.70
2022-09-07T18:12:56.576Z,2.40
2022-09-07T18:17:59.802Z,4.47
2022-09-07T18:23:03.146Z,2.83
2022-09-07T18:33:29.594Z,2.35
2022-09-07T18:38:33.913Z,1.98
2022-09-07T18:43:38.650Z,1.95
2022-09-07T18:53:49.610Z,2.05
2022-09-07T19:04:01.197Z,2.15
2022-09-07T19:19:14.877Z,3.00
2022-09-07T19:34:39.708Z,2.20
2022-09-07T19:39:43.321Z,2.40
2022-09-07T19:49:50.937Z,2.00
2022-09-07T19:54:54.593Z,2.53
2022-09-07T19:59:58.794Z,2.60
2022-09-07T20:05:02.490Z,2.53
2022-09-07T20:10:07.810Z,2.38
2022-09-07T20:15:11.995Z,3.05
2022-09-07T20:20:16.625Z,2.70
2022-09-07T20:25:20.011Z,2.92
2022-09-07T20:30:25.137Z,2.90
2022-09-07T20:35:28.886Z,3.00
2022-09-07T20:40:34.298Z,2.75
2022-09-07T20:45:38.396Z,2.92
2022-09-07T20:50:42.532Z,3.05
2022-09-07T20:55:48.564Z,3.40
2022-09-07T21:00:52.848Z,3.78
2022-09-07T21:06:02.910Z,3.20
2022-09-07T21:11:09.077Z,2.78
2022-09-07T21:16:15.189Z,2.83
2022-09-07T21:21:20.123Z,3.00
2022-09-07T21:26:25.137Z,3.30
2022-09-07T21:36:35.058Z,3.35
2022-09-07T21:41:38.890Z,3.00
2022-09-07T21:51:50.150Z,3.40
2022-09-07T21:56:54.961Z,3.53
2022-09-07T22:01:58.608Z,3.15
2022-09-07T22:07:16.621Z,3.40
2022-09-07T22:12:21.059Z,3.20
2022-09-07T22:17:29.072Z,3.22
2022-09-07T22:22:35.410Z,3.58
2022-09-07T22:27:40.492Z,3.63
2022-09-07T22:37:54.671Z,3.22
2022-09-07T22:42:58.126Z,3.20
2022-09-07T22:48:01.806Z,3.38
2022-09-07T22:53:07.658Z,3.88
2022-09-07T22:58:11.572Z,3.65
2022-09-07T23:03:15.302Z,3.27
2022-09-07T23:08:19.490Z,3.85
2022-09-07T23:13:26.405Z,3.15
2022-09-07T23:18:30.245Z,3.47
2022-09-07T23:23:34.006Z,3.57
2022-09-07T23:33:44.811Z,3.58
2022-09-07T23:38:48.684Z,3.80
2022-09-07T23:43:55.443Z,4.05
2022-09-07T23:54:04.496Z,3.30
2022-09-07T23:59:09.381Z,3.40
